This is the latest recevied weather packets stored in our database for station/object DH0BRO-3. If no packets are shown the sender has not sent any weather packets the latest 10 day(s).
| Time | Temp. | Humidity | Pressure | Rain* | Wind** | Luminosity | Snow |
|---|---|---|---|---|---|---|---|
| 1778011324 | 14.44° C | 85% | 1007.9 hPa | 0 mm | - | - | - |
| 1778010721 | 14.44° C | 84% | 1007.9 hPa | 0 mm | - | - | - |
| 1778002595 | 17.78° C | 79% | 1007.8 hPa | 0 mm | - | - | - |
| 1778001691 | 17.78° C | 79% | 1007.9 hPa | 0 mm | - | - | - |
| 1777998079 | 18.89° C | 75% | 1008.1 hPa | 0 mm | - | - | - |
| 1777997176 | 18.89° C | 75% | 1008.1 hPa | 0 mm | - | - | - |
| 1777989049 | 20.56° C | 69% | 1008.7 hPa | 0 mm | - | - | - |
| 1777988146 | 21.11° C | 69% | 1008.8 hPa | 0 mm | - | - | - |
| 1777985437 | 20.56° C | 71% | 1009.2 hPa | 0 mm | - | - | - |
| 1777970832 | 16.11° C | 82% | 1010 hPa | 0 mm | - | - | - |
| 1777969929 | 16.11° C | 83% | 1010.1 hPa | 0 mm | - | - | - |
| 1777968123 | 16.11° C | 82% | 1010.3 hPa | 0 mm | - | - | - |
| 1777961200 | 15° C | 83% | 1010.2 hPa | 0 mm | - | - | - |
| 1777960297 | 14.44° C | 84% | 1010.3 hPa | 0 mm | - | - | - |
| 1777953976 | 13.89° C | 83% | 1010.6 hPa | 0 mm | - | - | - |
| 1777953073 | 14.44° C | 83% | 1010.7 hPa | 0 mm | - | - | - |
| 1777951267 | 14.44° C | 83% | 1010.8 hPa | 0 mm | - | - | - |
| 1777950365 | 14.44° C | 82% | 1010.8 hPa | 0 mm | - | - | - |
| 1777941354 | 15° C | 80% | 1011.9 hPa | 0 mm | - | - | - |
| 1777939528 | 14.44° C | 81% | 1011.8 hPa | 0 mm | - | - | - |
| 1777929437 | 16.67° C | 75% | 1012.5 hPa | 0 mm | - | - | - |
| 1777926748 | 17.22° C | 74% | 1012.5 hPa | 0 mm | - | - | - |
| 1777919806 | 19.44° C | 67% | 1012.2 hPa | 0 mm | - | - | - |
| 1777917096 | 20.56° C | 65% | 1012.1 hPa | 0 mm | - | - | - |
| 1777916193 | 21.11° C | 63% | 1012 hPa | 0 mm | - | - | - |
* Rain latest hour (hover to see other rain measurements)
** Current wind speed in m/s (hover to see current wind gust speed)